Orbital elements of COSMOS 970 DEB
| Launched | 20 December 1977 |
| Flight ended | – |
| Launch site | Tyuratam Missile and Space Center, Kazakhstan (Also known as Baikonur Cosmodrome) |
| Owner | Commonwealth of Independent States (former USSR) |
| NORAD ID | 64996 |
| Date fetched |
Epoch osculation |
Inc. [°] |
Ecc. | RA asc node [hr] |
Arg Peri. [°] |
Mean anom [°] |
Mean motion [rev/day] |
Abs. mag |
| Date fetched |
Epoch osculation |
Inc. [°] |
Ecc. | RA asc node [hr] |
Arg Peri. [°] |
Mean anom [°] |
Mean motion [rev/day] |
Abs. mag |
| 2026 May 03 17:57 | 2026 Apr 30 08:30:54 | 65.8398 | 0.01128 | 14.4327 | 106.0925 | 255.2597 | 13.78163 | – |
| 2026 May 02 17:57 | 2026 Apr 30 08:30:54 | 65.8398 | 0.01128 | 14.4327 | 106.0925 | 255.2597 | 13.78163 | – |
| 2026 May 01 17:56 | 2026 Apr 30 08:30:54 | 65.8398 | 0.01128 | 14.4327 | 106.0925 | 255.2597 | 13.78163 | – |
| 2026 Apr 30 17:56 | 2026 Apr 30 08:30:54 | 65.8398 | 0.01128 | 14.4327 | 106.0925 | 255.2597 | 13.78163 | – |
| 2026 Apr 29 17:57 | 2026 Apr 22 14:09:38 | 65.8397 | 0.01133 | 15.7184 | 110.1811 | 255.2597 | 13.78163 | – |
| 2026 Apr 28 17:56 | 2026 Apr 22 14:09:38 | 65.8397 | 0.01133 | 15.7184 | 110.1811 | 255.2597 | 13.78163 | – |
| 2026 Apr 27 17:58 | 2026 Apr 22 14:09:38 | 65.8397 | 0.01133 | 15.7184 | 110.1811 | 255.2597 | 13.78163 | – |
| 2026 Apr 26 17:58 | 2026 Apr 22 14:09:38 | 65.8397 | 0.01133 | 15.7184 | 110.1811 | 255.2597 | 13.78163 | – |
| 2026 Apr 25 17:58 | 2026 Apr 22 14:09:38 | 65.8397 | 0.01133 | 15.7184 | 110.1811 | 255.2597 | 13.78163 | – |
| 2026 Apr 24 17:59 | 2026 Apr 22 14:09:38 | 65.8397 | 0.01133 | 15.7184 | 110.1811 | 255.2597 | 13.78163 | – |
| 2026 Apr 23 17:57 | 2026 Apr 18 16:06:45 | 65.8392 | 0.01136 | 16.3672 | 112.2213 | 255.2597 | 13.78163 | – |
| 2026 Apr 22 17:57 | 2026 Apr 18 16:06:45 | 65.8392 | 0.01136 | 16.3672 | 112.2213 | 255.2597 | 13.78163 | – |
| 2026 Apr 21 17:57 | 2026 Apr 18 16:06:45 | 65.8392 | 0.01136 | 16.3672 | 112.2213 | 255.2597 | 13.78163 | – |
| 2026 Apr 20 17:57 | 2026 Apr 18 16:06:45 | 65.8392 | 0.01136 | 16.3672 | 112.2213 | 255.2597 | 13.78163 | – |
| 2026 Apr 19 17:58 | 2026 Apr 18 16:06:45 | 65.8392 | 0.01136 | 16.3672 | 112.2213 | 255.2597 | 13.78163 | – |
| 2026 Apr 18 17:56 | 2026 Apr 12 03:21:54 | 65.8388 | 0.01140 | 17.4486 | 115.6046 | 255.2597 | 13.78163 | – |
| 2026 Apr 16 17:57 | 2026 Apr 12 03:21:54 | 65.8388 | 0.01140 | 17.4486 | 115.6046 | 255.2597 | 13.78163 | – |
| 2026 Apr 14 17:57 | 2026 Apr 12 03:21:54 | 65.8388 | 0.01140 | 17.4486 | 115.6046 | 255.2597 | 13.78163 | – |
| 2026 Apr 13 17:57 | 2026 Apr 12 03:21:54 | 65.8388 | 0.01140 | 17.4486 | 115.6046 | 255.2597 | 13.78163 | – |
| 2026 Apr 12 17:57 | 2026 Apr 08 05:18:58 | 65.8387 | 0.01141 | 18.0975 | 117.6279 | 255.2597 | 13.78163 | – |
| 2026 Apr 11 17:57 | 2026 Apr 08 05:18:58 | 65.8387 | 0.01141 | 18.0975 | 117.6279 | 255.2597 | 13.78163 | – |
| 2026 Apr 10 17:58 | 2026 Apr 08 05:18:58 | 65.8387 | 0.01141 | 18.0975 | 117.6279 | 255.2597 | 13.78163 | – |
| 2026 Apr 09 18:01 | 2026 Apr 08 05:18:58 | 65.8387 | 0.01141 | 18.0975 | 117.6279 | 255.2597 | 13.78163 | – |
| 2026 Apr 08 17:57 | 2026 Apr 08 05:18:58 | 65.8387 | 0.01141 | 18.0975 | 117.6279 | 255.2597 | 13.78163 | – |
| 2026 Apr 07 17:57 | 2026 Apr 01 20:03:03 | 65.8388 | 0.01144 | 19.1550 | 120.9548 | 255.2597 | 13.78163 | – |
| 2026 Apr 06 17:57 | 2026 Apr 01 20:03:03 | 65.8388 | 0.01144 | 19.1550 | 120.9548 | 255.2597 | 13.78163 | – |